createdAt,value
2018-11-11T18:27:50.948Z,9.2
2018-11-11T18:31:18.674Z,9
2018-11-11T18:34:46.529Z,8.9
2018-11-11T18:38:14.331Z,9.1
2018-11-11T18:41:42.232Z,8.9
2018-11-11T18:55:51.440Z,17.799999
2018-11-11T18:59:20.270Z,19.299999
2018-11-11T19:22:53.785Z,18.4
2018-11-11T19:26:21.774Z,19.5
2018-11-11T19:29:49.750Z,20.299999
2018-11-11T19:33:17.759Z,21.200001
2018-11-11T19:36:46.756Z,21.4
2018-11-11T19:40:15.742Z,22.9
2018-11-11T19:43:43.734Z,21.799999
2018-11-11T19:47:12.013Z,23.299999
2018-11-11T19:50:39.999Z,23.799999
2018-11-11T19:54:09.499Z,23.299999
2018-11-11T19:57:37.510Z,24.799999
2018-11-11T20:01:06.319Z,24.299999
2018-11-11T20:04:34.305Z,25.299999
2018-11-11T20:08:02.515Z,24.799999
2018-11-11T20:11:30.825Z,24.799999
2018-11-11T20:14:58.728Z,24.299999
2018-11-11T20:18:26.714Z,24.5
2018-11-11T20:21:54.830Z,23.9
2018-11-11T20:25:22.795Z,24.4
2018-11-11T20:28:50.787Z,23.9
2018-11-11T20:32:18.786Z,24.200001
2018-11-11T20:35:46.805Z,24.299999
2018-11-11T20:39:14.774Z,25
2018-11-11T20:42:42.789Z,25.1
2018-11-11T20:46:12.742Z,23.9
2018-11-11T20:49:40.809Z,24
2018-11-11T20:53:08.803Z,23.200001
2018-11-11T20:56:36.967Z,24
2018-11-11T21:00:04.854Z,23.1
2018-11-11T21:03:33.874Z,22.4
2018-11-11T21:07:01.822Z,21.5
2018-11-11T21:10:30.896Z,21.700001
2018-11-11T21:13:58.818Z,21.4
2018-11-11T21:17:27.049Z,21.1
2018-11-11T21:20:54.944Z,21
2018-11-11T21:24:22.916Z,22.200001
2018-11-11T21:27:50.977Z,20.4
2018-11-11T21:31:18.969Z,20
2018-11-11T21:34:46.983Z,19.700001
2018-11-11T21:38:15.062Z,18.6
2018-11-11T21:41:42.972Z,19.1
2018-11-11T21:45:10.960Z,19.9
2018-11-11T21:48:45.953Z,19.700001
2018-11-11T21:52:13.940Z,19.1
2018-11-11T21:55:42.905Z,20.700001
2018-11-11T21:59:10.875Z,19.4
2018-11-11T22:02:38.872Z,19.1
2018-11-11T22:06:06.871Z,18.9
2018-11-11T22:09:34.920Z,19.6
2018-11-11T22:13:02.828Z,19.200001
2018-11-11T22:16:30.811Z,18.9
2018-11-11T22:19:58.775Z,19
2018-11-11T22:23:26.756Z,19.200001
2018-11-11T22:26:54.745Z,19.4
2018-11-11T22:30:22.718Z,18.6
2018-11-11T22:33:50.701Z,18.6
2018-11-11T22:37:18.692Z,19
2018-11-11T22:40:47.673Z,18.6
2018-11-11T22:44:15.649Z,18.9
2018-11-11T22:47:43.634Z,18.6
2018-11-11T22:51:11.620Z,18.9
2018-11-11T22:54:39.620Z,18.799999
2018-11-11T22:58:07.605Z,18
2018-11-11T23:01:35.594Z,17.799999
2018-11-11T23:05:03.564Z,17
2018-11-11T23:08:31.555Z,16.299999
2018-11-11T23:11:59.538Z,15.3
2018-11-11T23:15:27.526Z,15.5
2018-11-11T23:18:56.487Z,14.8
2018-11-11T23:22:24.474Z,14.4
2018-11-11T23:25:52.463Z,14.9
2018-11-11T23:29:20.431Z,14.3
2018-11-11T23:32:48.422Z,13.8
2018-11-11T23:36:16.419Z,13.3
2018-11-11T23:39:44.395Z,13.5
2018-11-11T23:43:12.376Z,12.4
2018-11-11T23:46:41.358Z,12.6
2018-11-11T23:50:09.337Z,12.7
2018-11-11T23:53:37.327Z,11.6
2018-11-11T23:57:05.358Z,12
